Elmore, Indiana
Current Conditions -  °F | °C
As of 3:35 AM on Saturday 29 Nov 2014 (Local Time) from KDCY Reporting Station
Clear Clear  
Wind Chill: 30°   Ceiling: Unl
Heat Index: 39°   Visibility: 10mi
Dew Point: 30°   Wind: 16mph
Humidity: 69%   Direction: 200°SSW
Pressure: 29.95"   Gusts: NA
Location:  38.8142°N, 87.0735°W
Report Text: KDCY 290935Z AUTO 20014KT 10SM CLR 04/M01 A2995 RMK AO2 T00391013
Loading
Personal Weather Stations






























Interactive Weather Map New forecast layout! Learn more

10-Day Weather Forecast

Advertisements
Track Severe Weather on mobile